Archival Weather

Southern Wisconsin Rgnl

Janesville, Wisconsin (KJVL)

Report from: Wednesday, December 6, 2023 4:55 AM CST
Current time: Sunday, February 25, 2024 4:50 PM CST

Current weather – Weather history – Daily summaries
Weather forecast

Temperature1.0°C (33.8°F)
Wind chill-1.4°C (29.6°F)
Dew point-3.0°C (26.6°F)
Winds 4 kts (2.1 m/s, 4.6 mph) West (280°)
Visibility10 mi. (16.1 km)
Clouds Ceiling: Overcast 2,300 ft. (701 m)
Altimeter30.26 in.Hg (1025 mB)
Relative humidity75 %
Density altitude-2,021 ft. (-616 m)
Remarks Fully automated report
Automated weather observing station with precipitation discriminator
Flight conditions Marginal Visual Meteorological Conditions
Raw dataKJVL 061055Z AUTO 28004KT 10SM OVC023 01/M03 A3026 RMK AO2
An error has occurred. This application may no longer respond until reloaded. Reload 🗙